Terminal Aerodrome Forecast
Issued by NWS

Home | Current Version | Previous Version | Text Only | Print | Product List | Glossary On
Versions: 1 2 3 4 5 6 7 8 9 10 11 12 13 14 15 16 17 18 19 20 21 22
000
FTUS46 KLOX 230600 AAA
TAFLGB
TAF AMD
KLGB 230627Z 2306/2406 VRB05KT P6SM BKN018
     FM230700 VRB05KT P6SM OVC010
     FM231700 17006KT P6SM OVC015
     FM232000 19008KT P6SM SCT020
     FM240500 VRB05KT P6SM OVC010=

USA.gov is the U.S. government's official web portal to all federal, state and local government web resources and services.